sensor_id;sensor_type;location;lat;lon;timestamp;P1;durP1;ratioP1;P2;durP2;ratioP2
3261;SDS011;1643;47.746;9.000;2023-05-09T00:01:16;7.40;;;6.53;;
3261;SDS011;1643;47.746;9.000;2023-05-09T00:03:42;6.70;;;5.17;;
3261;SDS011;1643;47.746;9.000;2023-05-09T00:06:08;6.57;;;5.77;;
3261;SDS011;1643;47.746;9.000;2023-05-09T00:08:34;5.23;;;4.73;;
3261;SDS011;1643;47.746;9.000;2023-05-09T00:11:00;6.10;;;5.50;;
3261;SDS011;1643;47.746;9.000;2023-05-09T00:13:26;5.77;;;5.27;;
3261;SDS011;1643;47.746;9.000;2023-05-09T00:15:52;6.90;;;5.23;;
3261;SDS011;1643;47.746;9.000;2023-05-09T00:18:21;5.70;;;5.10;;
3261;SDS011;1643;47.746;9.000;2023-05-09T00:20:47;8.63;;;5.30;;
3261;SDS011;1643;47.746;9.000;2023-05-09T00:23:13;10.80;;;5.70;;
3261;SDS011;1643;47.746;9.000;2023-05-09T00:25:39;8.00;;;5.90;;
3261;SDS011;1643;47.746;9.000;2023-05-09T00:28:05;8.70;;;5.50;;
3261;SDS011;1643;47.746;9.000;2023-05-09T00:30:30;5.77;;;5.00;;
3261;SDS011;1643;47.746;9.000;2023-05-09T00:32:56;5.50;;;5.00;;
3261;SDS011;1643;47.746;9.000;2023-05-09T00:35:21;7.03;;;5.50;;
3261;SDS011;1643;47.746;9.000;2023-05-09T00:37:47;7.40;;;6.10;;
3261;SDS011;1643;47.746;9.000;2023-05-09T00:40:12;7.00;;;5.83;;
3261;SDS011;1643;47.746;9.000;2023-05-09T00:42:38;7.90;;;5.00;;
3261;SDS011;1643;47.746;9.000;2023-05-09T00:45:05;6.00;;;5.20;;
3261;SDS011;1643;47.746;9.000;2023-05-09T00:47:31;8.20;;;5.07;;
3261;SDS011;1643;47.746;9.000;2023-05-09T00:49:57;7.60;;;5.60;;
3261;SDS011;1643;47.746;9.000;2023-05-09T00:52:23;6.10;;;5.07;;
3261;SDS011;1643;47.746;9.000;2023-05-09T00:54:53;6.17;;;5.57;;
3261;SDS011;1643;47.746;9.000;2023-05-09T00:57:20;5.53;;;5.03;;
3261;SDS011;1643;47.746;9.000;2023-05-09T00:59:46;7.00;;;5.40;;
3261;SDS011;1643;47.746;9.000;2023-05-09T01:02:13;6.40;;;5.43;;
3261;SDS011;1643;47.746;9.000;2023-05-09T01:04:40;7.63;;;6.40;;
3261;SDS011;1643;47.746;9.000;2023-05-09T01:07:10;6.50;;;5.37;;
3261;SDS011;1643;47.746;9.000;2023-05-09T01:09:55;5.47;;;4.90;;
3261;SDS011;1643;47.746;9.000;2023-05-09T01:12:34;12.13;;;6.23;;
3261;SDS011;1643;47.746;9.000;2023-05-09T01:15:10;6.37;;;5.20;;
3261;SDS011;1643;47.746;9.000;2023-05-09T01:26:09;6.50;;;5.77;;
3261;SDS011;1643;47.746;9.000;2023-05-09T01:31:18;6.37;;;5.77;;
3261;SDS011;1643;47.746;9.000;2023-05-09T01:33:45;6.73;;;6.10;;
3261;SDS011;1643;47.746;9.000;2023-05-09T01:36:15;6.73;;;5.80;;
3261;SDS011;1643;47.746;9.000;2023-05-09T01:38:43;8.03;;;6.87;;
3261;SDS011;1643;47.746;9.000;2023-05-09T01:41:12;8.27;;;6.27;;
3261;SDS011;1643;47.746;9.000;2023-05-09T01:43:40;8.33;;;7.37;;
3261;SDS011;1643;47.746;9.000;2023-05-09T01:46:08;9.10;;;7.10;;
3261;SDS011;1643;47.746;9.000;2023-05-09T01:48:35;7.77;;;6.90;;
3261;SDS011;1643;47.746;9.000;2023-05-09T01:51:02;13.50;;;7.83;;
3261;SDS011;1643;47.746;9.000;2023-05-09T01:53:29;10.70;;;7.03;;
3261;SDS011;1643;47.746;9.000;2023-05-09T01:55:56;8.57;;;6.90;;
3261;SDS011;1643;47.746;9.000;2023-05-09T01:58:24;7.40;;;6.60;;
3261;SDS011;1643;47.746;9.000;2023-05-09T02:00:51;7.97;;;7.00;;
3261;SDS011;1643;47.746;9.000;2023-05-09T02:03:17;10.10;;;6.53;;
3261;SDS011;1643;47.746;9.000;2023-05-09T02:05:43;7.90;;;6.87;;
3261;SDS011;1643;47.746;9.000;2023-05-09T02:08:12;7.90;;;7.00;;
3261;SDS011;1643;47.746;9.000;2023-05-09T02:10:39;12.37;;;6.83;;
3261;SDS011;1643;47.746;9.000;2023-05-09T02:13:04;9.10;;;6.87;;
3261;SDS011;1643;47.746;9.000;2023-05-09T02:15:30;7.93;;;6.60;;
3261;SDS011;1643;47.746;9.000;2023-05-09T02:17:56;8.40;;;6.90;;
3261;SDS011;1643;47.746;9.000;2023-05-09T02:20:22;11.13;;;7.10;;
3261;SDS011;1643;47.746;9.000;2023-05-09T02:22:48;9.30;;;7.50;;
3261;SDS011;1643;47.746;9.000;2023-05-09T02:25:14;7.40;;;6.70;;
3261;SDS011;1643;47.746;9.000;2023-05-09T02:27:41;9.90;;;7.90;;
3261;SDS011;1643;47.746;9.000;2023-05-09T02:30:10;7.10;;;6.37;;
3261;SDS011;1643;47.746;9.000;2023-05-09T02:32:39;8.20;;;6.40;;
3261;SDS011;1643;47.746;9.000;2023-05-09T02:35:08;10.13;;;7.10;;
3261;SDS011;1643;47.746;9.000;2023-05-09T02:37:35;7.57;;;6.70;;
3261;SDS011;1643;47.746;9.000;2023-05-09T02:40:01;8.33;;;7.20;;
3261;SDS011;1643;47.746;9.000;2023-05-09T02:42:29;8.10;;;6.70;;
3261;SDS011;1643;47.746;9.000;2023-05-09T02:44:55;8.80;;;7.00;;
3261;SDS011;1643;47.746;9.000;2023-05-09T02:47:20;7.03;;;6.07;;
3261;SDS011;1643;47.746;9.000;2023-05-09T02:49:46;7.30;;;6.60;;
3261;SDS011;1643;47.746;9.000;2023-05-09T02:52:12;10.60;;;7.10;;
3261;SDS011;1643;47.746;9.000;2023-05-09T02:54:38;8.37;;;7.30;;
3261;SDS011;1643;47.746;9.000;2023-05-09T02:57:04;7.53;;;6.70;;
3261;SDS011;1643;47.746;9.000;2023-05-09T02:59:29;9.57;;;6.80;;
3261;SDS011;1643;47.746;9.000;2023-05-09T03:01:55;11.97;;;7.97;;
3261;SDS011;1643;47.746;9.000;2023-05-09T03:04:21;7.80;;;7.10;;
3261;SDS011;1643;47.746;9.000;2023-05-09T03:06:47;9.67;;;6.43;;
3261;SDS011;1643;47.746;9.000;2023-05-09T03:09:13;7.47;;;6.60;;
3261;SDS011;1643;47.746;9.000;2023-05-09T03:11:39;7.57;;;5.90;;
3261;SDS011;1643;47.746;9.000;2023-05-09T03:14:05;8.13;;;7.00;;
3261;SDS011;1643;47.746;9.000;2023-05-09T03:16:32;8.53;;;7.07;;
3261;SDS011;1643;47.746;9.000;2023-05-09T03:18:58;8.27;;;6.80;;
3261;SDS011;1643;47.746;9.000;2023-05-09T03:21:23;8.67;;;7.77;;
3261;SDS011;1643;47.746;9.000;2023-05-09T03:23:49;6.50;;;5.90;;
3261;SDS011;1643;47.746;9.000;2023-05-09T03:26:15;8.37;;;7.37;;
3261;SDS011;1643;47.746;9.000;2023-05-09T03:28:40;8.40;;;6.47;;
3261;SDS011;1643;47.746;9.000;2023-05-09T03:31:06;7.30;;;6.47;;
3261;SDS011;1643;47.746;9.000;2023-05-09T03:33:32;7.90;;;7.10;;
3261;SDS011;1643;47.746;9.000;2023-05-09T03:35:57;9.77;;;7.03;;
3261;SDS011;1643;47.746;9.000;2023-05-09T03:38:23;9.20;;;8.20;;
3261;SDS011;1643;47.746;9.000;2023-05-09T03:40:49;8.50;;;7.20;;
3261;SDS011;1643;47.746;9.000;2023-05-09T03:43:15;9.87;;;7.07;;
3261;SDS011;1643;47.746;9.000;2023-05-09T03:45:41;9.53;;;6.43;;
3261;SDS011;1643;47.746;9.000;2023-05-09T03:48:07;7.97;;;6.70;;
3261;SDS011;1643;47.746;9.000;2023-05-09T03:50:34;7.30;;;6.57;;
3261;SDS011;1643;47.746;9.000;2023-05-09T03:52:59;9.10;;;7.20;;
3261;SDS011;1643;47.746;9.000;2023-05-09T03:55:25;7.30;;;6.50;;
3261;SDS011;1643;47.746;9.000;2023-05-09T03:57:51;9.90;;;7.50;;
3261;SDS011;1643;47.746;9.000;2023-05-09T04:00:17;7.40;;;6.60;;
3261;SDS011;1643;47.746;9.000;2023-05-09T04:02:43;9.73;;;8.00;;
3261;SDS011;1643;47.746;9.000;2023-05-09T04:05:09;10.67;;;7.30;;
3261;SDS011;1643;47.746;9.000;2023-05-09T04:07:35;11.23;;;7.40;;
3261;SDS011;1643;47.746;9.000;2023-05-09T04:10:01;12.40;;;8.33;;
3261;SDS011;1643;47.746;9.000;2023-05-09T04:12:27;8.43;;;7.53;;
3261;SDS011;1643;47.746;9.000;2023-05-09T04:14:52;9.40;;;7.83;;
3261;SDS011;1643;47.746;9.000;2023-05-09T04:17:18;10.27;;;7.40;;
3261;SDS011;1643;47.746;9.000;2023-05-09T04:19:43;9.40;;;7.87;;
3261;SDS011;1643;47.746;9.000;2023-05-09T04:22:09;8.37;;;6.73;;
3261;SDS011;1643;47.746;9.000;2023-05-09T04:24:35;8.30;;;6.47;;
3261;SDS011;1643;47.746;9.000;2023-05-09T04:27:00;9.27;;;6.50;;
3261;SDS011;1643;47.746;9.000;2023-05-09T04:29:26;9.23;;;5.70;;
3261;SDS011;1643;47.746;9.000;2023-05-09T04:31:52;8.67;;;6.33;;
3261;SDS011;1643;47.746;9.000;2023-05-09T04:34:17;8.40;;;6.90;;
3261;SDS011;1643;47.746;9.000;2023-05-09T04:36:43;7.00;;;6.23;;
3261;SDS011;1643;47.746;9.000;2023-05-09T04:39:09;9.50;;;6.30;;
3261;SDS011;1643;47.746;9.000;2023-05-09T04:41:35;7.90;;;6.10;;
3261;SDS011;1643;47.746;9.000;2023-05-09T04:44:01;9.97;;;7.33;;
3261;SDS011;1643;47.746;9.000;2023-05-09T04:46:27;10.93;;;7.57;;
3261;SDS011;1643;47.746;9.000;2023-05-09T04:48:53;10.93;;;7.93;;
3261;SDS011;1643;47.746;9.000;2023-05-09T04:51:18;13.43;;;8.50;;
3261;SDS011;1643;47.746;9.000;2023-05-09T04:53:44;9.20;;;8.00;;
3261;SDS011;1643;47.746;9.000;2023-05-09T04:56:10;15.63;;;8.80;;
3261;SDS011;1643;47.746;9.000;2023-05-09T04:58:36;10.83;;;9.10;;
3261;SDS011;1643;47.746;9.000;2023-05-09T05:01:04;8.43;;;7.50;;
3261;SDS011;1643;47.746;9.000;2023-05-09T05:03:30;9.73;;;6.70;;
3261;SDS011;1643;47.746;9.000;2023-05-09T05:05:56;9.53;;;8.60;;
3261;SDS011;1643;47.746;9.000;2023-05-09T05:08:22;13.23;;;8.40;;
3261;SDS011;1643;47.746;9.000;2023-05-09T05:10:48;11.00;;;7.27;;
3261;SDS011;1643;47.746;9.000;2023-05-09T05:13:14;11.27;;;7.57;;
3261;SDS011;1643;47.746;9.000;2023-05-09T05:15:40;8.03;;;7.07;;
3261;SDS011;1643;47.746;9.000;2023-05-09T05:18:06;9.07;;;7.77;;
3261;SDS011;1643;47.746;9.000;2023-05-09T05:20:31;7.50;;;6.63;;
3261;SDS011;1643;47.746;9.000;2023-05-09T05:22:57;10.80;;;6.80;;
3261;SDS011;1643;47.746;9.000;2023-05-09T05:25:23;17.80;;;6.67;;
3261;SDS011;1643;47.746;9.000;2023-05-09T05:27:49;7.67;;;6.97;;
3261;SDS011;1643;47.746;9.000;2023-05-09T05:30:15;9.43;;;6.93;;
3261;SDS011;1643;47.746;9.000;2023-05-09T05:32:41;8.10;;;7.27;;
3261;SDS011;1643;47.746;9.000;2023-05-09T05:35:07;9.17;;;7.80;;
3261;SDS011;1643;47.746;9.000;2023-05-09T05:37:35;8.43;;;7.20;;
3261;SDS011;1643;47.746;9.000;2023-05-09T05:40:02;9.77;;;6.37;;
3261;SDS011;1643;47.746;9.000;2023-05-09T05:42:28;8.10;;;6.60;;
3261;SDS011;1643;47.746;9.000;2023-05-09T05:44:54;8.50;;;7.60;;
3261;SDS011;1643;47.746;9.000;2023-05-09T05:47:19;8.37;;;7.50;;
3261;SDS011;1643;47.746;9.000;2023-05-09T05:49:45;7.47;;;6.40;;
3261;SDS011;1643;47.746;9.000;2023-05-09T05:52:10;8.43;;;7.10;;
3261;SDS011;1643;47.746;9.000;2023-05-09T05:54:36;7.17;;;6.47;;
3261;SDS011;1643;47.746;9.000;2023-05-09T05:57:02;7.40;;;6.60;;
3261;SDS011;1643;47.746;9.000;2023-05-09T05:59:27;7.37;;;6.67;;
3261;SDS011;1643;47.746;9.000;2023-05-09T06:01:53;7.47;;;6.70;;
3261;SDS011;1643;47.746;9.000;2023-05-09T06:04:18;8.87;;;6.80;;
3261;SDS011;1643;47.746;9.000;2023-05-09T06:06:45;7.17;;;6.53;;
3261;SDS011;1643;47.746;9.000;2023-05-09T06:09:10;7.80;;;7.00;;
3261;SDS011;1643;47.746;9.000;2023-05-09T06:11:36;8.07;;;7.27;;
3261;SDS011;1643;47.746;9.000;2023-05-09T06:14:03;7.37;;;6.60;;
3261;SDS011;1643;47.746;9.000;2023-05-09T06:16:28;7.07;;;6.37;;
3261;SDS011;1643;47.746;9.000;2023-05-09T06:18:54;8.93;;;6.97;;
3261;SDS011;1643;47.746;9.000;2023-05-09T06:21:20;9.33;;;7.03;;
3261;SDS011;1643;47.746;9.000;2023-05-09T06:23:45;8.20;;;7.07;;
3261;SDS011;1643;47.746;9.000;2023-05-09T06:26:11;7.43;;;6.60;;
3261;SDS011;1643;47.746;9.000;2023-05-09T06:28:38;7.73;;;6.57;;
3261;SDS011;1643;47.746;9.000;2023-05-09T06:31:04;8.97;;;6.80;;
3261;SDS011;1643;47.746;9.000;2023-05-09T06:33:29;10.37;;;6.77;;
3261;SDS011;1643;47.746;9.000;2023-05-09T06:35:55;7.83;;;6.90;;
3261;SDS011;1643;47.746;9.000;2023-05-09T06:38:20;6.70;;;6.00;;
3261;SDS011;1643;47.746;9.000;2023-05-09T06:40:46;7.60;;;6.90;;
3261;SDS011;1643;47.746;9.000;2023-05-09T06:43:12;7.70;;;7.00;;
3261;SDS011;1643;47.746;9.000;2023-05-09T06:45:37;7.47;;;6.73;;
3261;SDS011;1643;47.746;9.000;2023-05-09T06:48:03;7.43;;;6.63;;
3261;SDS011;1643;47.746;9.000;2023-05-09T06:50:29;7.27;;;6.50;;
3261;SDS011;1643;47.746;9.000;2023-05-09T06:52:54;7.23;;;6.17;;
3261;SDS011;1643;47.746;9.000;2023-05-09T06:55:20;8.33;;;7.20;;
3261;SDS011;1643;47.746;9.000;2023-05-09T06:57:46;8.67;;;6.97;;
3261;SDS011;1643;47.746;9.000;2023-05-09T07:00:12;8.57;;;7.10;;
3261;SDS011;1643;47.746;9.000;2023-05-09T07:02:38;9.50;;;7.87;;
3261;SDS011;1643;47.746;9.000;2023-05-09T07:05:06;8.20;;;7.40;;
3261;SDS011;1643;47.746;9.000;2023-05-09T07:07:32;7.37;;;6.67;;
3261;SDS011;1643;47.746;9.000;2023-05-09T07:09:58;8.13;;;7.33;;
3261;SDS011;1643;47.746;9.000;2023-05-09T07:12:25;8.23;;;7.40;;
3261;SDS011;1643;47.746;9.000;2023-05-09T07:14:51;7.03;;;6.33;;
3261;SDS011;1643;47.746;9.000;2023-05-09T07:17:16;7.90;;;6.67;;
3261;SDS011;1643;47.746;9.000;2023-05-09T07:19:42;8.07;;;6.83;;
3261;SDS011;1643;47.746;9.000;2023-05-09T07:22:07;7.80;;;7.00;;
3261;SDS011;1643;47.746;9.000;2023-05-09T07:24:33;10.77;;;7.57;;
3261;SDS011;1643;47.746;9.000;2023-05-09T07:27:01;7.87;;;7.10;;
3261;SDS011;1643;47.746;9.000;2023-05-09T07:29:27;8.20;;;7.17;;
3261;SDS011;1643;47.746;9.000;2023-05-09T07:31:53;7.00;;;6.30;;
3261;SDS011;1643;47.746;9.000;2023-05-09T07:34:18;7.23;;;6.50;;
3261;SDS011;1643;47.746;9.000;2023-05-09T07:36:44;9.43;;;7.50;;
3261;SDS011;1643;47.746;9.000;2023-05-09T07:39:10;7.13;;;6.40;;
3261;SDS011;1643;47.746;9.000;2023-05-09T07:41:36;6.30;;;5.70;;
3261;SDS011;1643;47.746;9.000;2023-05-09T07:44:02;7.33;;;5.87;;
3261;SDS011;1643;47.746;9.000;2023-05-09T07:46:27;6.40;;;5.80;;
3261;SDS011;1643;47.746;9.000;2023-05-09T07:48:53;6.63;;;5.80;;
3261;SDS011;1643;47.746;9.000;2023-05-09T07:51:19;5.93;;;5.33;;
3261;SDS011;1643;47.746;9.000;2023-05-09T07:53:44;5.70;;;5.10;;
3261;SDS011;1643;47.746;9.000;2023-05-09T07:56:10;6.30;;;5.70;;
3261;SDS011;1643;47.746;9.000;2023-05-09T07:58:37;5.20;;;4.70;;
3261;SDS011;1643;47.746;9.000;2023-05-09T08:01:02;5.00;;;4.37;;
3261;SDS011;1643;47.746;9.000;2023-05-09T08:03:28;4.63;;;4.20;;
3261;SDS011;1643;47.746;9.000;2023-05-09T08:05:54;4.20;;;3.80;;
3261;SDS011;1643;47.746;9.000;2023-05-09T08:08:22;5.43;;;4.60;;
3261;SDS011;1643;47.746;9.000;2023-05-09T08:10:48;5.10;;;4.60;;
3261;SDS011;1643;47.746;9.000;2023-05-09T08:13:14;4.73;;;4.33;;
3261;SDS011;1643;47.746;9.000;2023-05-09T08:15:40;6.10;;;5.53;;
3261;SDS011;1643;47.746;9.000;2023-05-09T08:18:05;5.47;;;4.13;;
3261;SDS011;1643;47.746;9.000;2023-05-09T08:20:31;6.63;;;6.03;;
3261;SDS011;1643;47.746;9.000;2023-05-09T08:22:58;5.57;;;5.00;;
3261;SDS011;1643;47.746;9.000;2023-05-09T08:25:24;4.90;;;4.40;;
3261;SDS011;1643;47.746;9.000;2023-05-09T08:27:49;5.70;;;4.67;;
3261;SDS011;1643;47.746;9.000;2023-05-09T08:30:15;4.57;;;4.17;;
3261;SDS011;1643;47.746;9.000;2023-05-09T08:32:40;4.70;;;4.30;;
3261;SDS011;1643;47.746;9.000;2023-05-09T08:35:06;4.27;;;3.87;;
3261;SDS011;1643;47.746;9.000;2023-05-09T08:37:33;4.57;;;4.17;;
3261;SDS011;1643;47.746;9.000;2023-05-09T08:39:59;4.60;;;4.20;;
3261;SDS011;1643;47.746;9.000;2023-05-09T08:42:25;4.77;;;4.37;;
3261;SDS011;1643;47.746;9.000;2023-05-09T08:44:52;4.00;;;3.33;;
3261;SDS011;1643;47.746;9.000;2023-05-09T08:47:17;4.37;;;3.97;;
3261;SDS011;1643;47.746;9.000;2023-05-09T08:49:45;3.83;;;3.53;;
3261;SDS011;1643;47.746;9.000;2023-05-09T08:52:11;3.70;;;3.40;;
3261;SDS011;1643;47.746;9.000;2023-05-09T08:54:37;3.80;;;3.40;;
3261;SDS011;1643;47.746;9.000;2023-05-09T08:57:03;4.30;;;3.43;;
3261;SDS011;1643;47.746;9.000;2023-05-09T08:59:29;3.47;;;3.20;;
3261;SDS011;1643;47.746;9.000;2023-05-09T09:01:59;4.13;;;3.77;;
3261;SDS011;1643;47.746;9.000;2023-05-09T09:04:24;4.10;;;3.77;;
3261;SDS011;1643;47.746;9.000;2023-05-09T09:06:50;3.83;;;3.50;;
3261;SDS011;1643;47.746;9.000;2023-05-09T09:09:17;3.67;;;3.37;;
3261;SDS011;1643;47.746;9.000;2023-05-09T09:11:44;3.60;;;3.30;;
3261;SDS011;1643;47.746;9.000;2023-05-09T09:14:12;4.03;;;3.73;;
3261;SDS011;1643;47.746;9.000;2023-05-09T09:16:40;8.33;;;3.50;;
3261;SDS011;1643;47.746;9.000;2023-05-09T09:19:10;3.43;;;3.13;;
3261;SDS011;1643;47.746;9.000;2023-05-09T09:21:37;3.70;;;3.40;;
3261;SDS011;1643;47.746;9.000;2023-05-09T09:24:08;3.53;;;3.23;;
3261;SDS011;1643;47.746;9.000;2023-05-09T09:26:47;3.63;;;3.33;;
3261;SDS011;1643;47.746;9.000;2023-05-09T09:29:14;3.60;;;3.30;;
3261;SDS011;1643;47.746;9.000;2023-05-09T09:31:44;4.23;;;3.50;;
3261;SDS011;1643;47.746;9.000;2023-05-09T09:34:11;3.40;;;3.20;;
3261;SDS011;1643;47.746;9.000;2023-05-09T09:36:40;2.70;;;2.50;;
3261;SDS011;1643;47.746;9.000;2023-05-09T09:39:06;2.97;;;2.70;;
3261;SDS011;1643;47.746;9.000;2023-05-09T09:41:34;2.57;;;2.37;;
3261;SDS011;1643;47.746;9.000;2023-05-09T09:44:07;3.17;;;2.90;;
3261;SDS011;1643;47.746;9.000;2023-05-09T09:49:18;3.00;;;2.80;;
3261;SDS011;1643;47.746;9.000;2023-05-09T09:51:48;3.80;;;3.00;;
3261;SDS011;1643;47.746;9.000;2023-05-09T09:54:15;3.23;;;2.90;;
3261;SDS011;1643;47.746;9.000;2023-05-09T09:56:41;3.03;;;2.73;;
3261;SDS011;1643;47.746;9.000;2023-05-09T09:59:17;2.50;;;2.30;;
3261;SDS011;1643;47.746;9.000;2023-05-09T10:02:27;2.40;;;2.20;;
3261;SDS011;1643;47.746;9.000;2023-05-09T10:04:36;2.80;;;2.60;;
3261;SDS011;1643;47.746;9.000;2023-05-09T10:07:04;2.83;;;2.20;;
3261;SDS011;1643;47.746;9.000;2023-05-09T10:09:31;2.20;;;2.00;;
3261;SDS011;1643;47.746;9.000;2023-05-09T10:12:02;2.97;;;2.67;;
3261;SDS011;1643;47.746;9.000;2023-05-09T10:14:29;2.80;;;2.60;;
3261;SDS011;1643;47.746;9.000;2023-05-09T10:16:57;2.63;;;2.43;;
3261;SDS011;1643;47.746;9.000;2023-05-09T10:19:25;1.97;;;1.87;;
3261;SDS011;1643;47.746;9.000;2023-05-09T10:21:54;2.37;;;2.17;;
3261;SDS011;1643;47.746;9.000;2023-05-09T10:27:03;2.43;;;2.33;;
3261;SDS011;1643;47.746;9.000;2023-05-09T10:29:40;3.63;;;2.77;;
3261;SDS011;1643;47.746;9.000;2023-05-09T10:32:22;2.50;;;2.30;;
3261;SDS011;1643;47.746;9.000;2023-05-09T10:34:57;2.90;;;2.70;;
3261;SDS011;1643;47.746;9.000;2023-05-09T10:37:28;1.90;;;1.80;;
3261;SDS011;1643;47.746;9.000;2023-05-09T10:39:55;2.43;;;2.23;;
3261;SDS011;1643;47.746;9.000;2023-05-09T10:42:21;2.67;;;2.47;;
3261;SDS011;1643;47.746;9.000;2023-05-09T10:44:49;2.00;;;1.90;;
3261;SDS011;1643;47.746;9.000;2023-05-09T10:47:17;2.30;;;2.10;;
3261;SDS011;1643;47.746;9.000;2023-05-09T10:49:43;3.03;;;2.10;;
3261;SDS011;1643;47.746;9.000;2023-05-09T10:52:10;3.30;;;2.80;;
3261;SDS011;1643;47.746;9.000;2023-05-09T10:54:36;1.90;;;1.70;;
3261;SDS011;1643;47.746;9.000;2023-05-09T10:57:02;2.87;;;2.10;;
3261;SDS011;1643;47.746;9.000;2023-05-09T10:59:42;1.80;;;1.70;;
3261;SDS011;1643;47.746;9.000;2023-05-09T11:02:11;1.60;;;1.50;;
3261;SDS011;1643;47.746;9.000;2023-05-09T11:04:38;2.00;;;1.50;;
3261;SDS011;1643;47.746;9.000;2023-05-09T11:07:05;2.23;;;1.53;;
3261;SDS011;1643;47.746;9.000;2023-05-09T11:09:49;1.83;;;1.70;;
3261;SDS011;1643;47.746;9.000;2023-05-09T11:12:17;1.60;;;1.50;;
3261;SDS011;1643;47.746;9.000;2023-05-09T11:24:44;2.60;;;1.70;;
3261;SDS011;1643;47.746;9.000;2023-05-09T11:27:20;1.73;;;1.63;;
3261;SDS011;1643;47.746;9.000;2023-05-09T11:29:50;2.03;;;1.83;;
3261;SDS011;1643;47.746;9.000;2023-05-09T11:32:18;1.70;;;1.60;;
3261;SDS011;1643;47.746;9.000;2023-05-09T11:34:44;1.60;;;1.50;;
3261;SDS011;1643;47.746;9.000;2023-05-09T11:37:11;1.50;;;1.40;;
3261;SDS011;1643;47.746;9.000;2023-05-09T11:39:53;1.77;;;1.67;;
3261;SDS011;1643;47.746;9.000;2023-05-09T11:42:20;1.57;;;1.47;;
3261;SDS011;1643;47.746;9.000;2023-05-09T11:44:47;1.83;;;1.73;;
3261;SDS011;1643;47.746;9.000;2023-05-09T11:47:13;2.10;;;1.83;;
3261;SDS011;1643;47.746;9.000;2023-05-09T11:49:43;1.80;;;1.70;;
3261;SDS011;1643;47.746;9.000;2023-05-09T11:52:09;1.83;;;1.73;;
3261;SDS011;1643;47.746;9.000;2023-05-09T11:54:38;1.70;;;1.60;;
3261;SDS011;1643;47.746;9.000;2023-05-09T11:57:04;2.13;;;1.93;;
3261;SDS011;1643;47.746;9.000;2023-05-09T11:59:34;2.17;;;1.60;;
3261;SDS011;1643;47.746;9.000;2023-05-09T12:02:03;1.67;;;1.13;;
3261;SDS011;1643;47.746;9.000;2023-05-09T12:04:30;1.90;;;1.80;;
3261;SDS011;1643;47.746;9.000;2023-05-09T12:06:57;1.60;;;1.50;;
3261;SDS011;1643;47.746;9.000;2023-05-09T12:09:23;1.40;;;1.30;;
3261;SDS011;1643;47.746;9.000;2023-05-09T12:11:51;1.53;;;1.43;;
3261;SDS011;1643;47.746;9.000;2023-05-09T12:14:30;1.60;;;1.50;;
3261;SDS011;1643;47.746;9.000;2023-05-09T12:16:57;1.80;;;1.70;;
3261;SDS011;1643;47.746;9.000;2023-05-09T12:19:26;1.30;;;1.20;;
3261;SDS011;1643;47.746;9.000;2023-05-09T12:21:55;1.40;;;1.30;;
3261;SDS011;1643;47.746;9.000;2023-05-09T12:24:23;1.60;;;1.50;;
3261;SDS011;1643;47.746;9.000;2023-05-09T12:26:51;7.23;;;1.40;;
3261;SDS011;1643;47.746;9.000;2023-05-09T12:29:17;1.60;;;1.50;;
3261;SDS011;1643;47.746;9.000;2023-05-09T12:31:44;1.40;;;1.30;;
3261;SDS011;1643;47.746;9.000;2023-05-09T12:34:10;2.50;;;1.40;;
3261;SDS011;1643;47.746;9.000;2023-05-09T12:36:36;1.60;;;1.50;;
3261;SDS011;1643;47.746;9.000;2023-05-09T12:39:08;3.83;;;1.40;;
3261;SDS011;1643;47.746;9.000;2023-05-09T12:41:41;1.87;;;1.77;;
3261;SDS011;1643;47.746;9.000;2023-05-09T12:44:08;1.97;;;1.57;;
3261;SDS011;1643;47.746;9.000;2023-05-09T12:46:34;1.60;;;1.50;;
3261;SDS011;1643;47.746;9.000;2023-05-09T12:49:00;1.70;;;1.60;;
3261;SDS011;1643;47.746;9.000;2023-05-09T12:51:26;2.20;;;2.00;;
3261;SDS011;1643;47.746;9.000;2023-05-09T12:53:51;2.03;;;1.93;;
3261;SDS011;1643;47.746;9.000;2023-05-09T12:56:20;1.70;;;1.60;;
3261;SDS011;1643;47.746;9.000;2023-05-09T12:58:53;1.47;;;1.37;;
3261;SDS011;1643;47.746;9.000;2023-05-09T13:01:20;1.20;;;1.20;;
3261;SDS011;1643;47.746;9.000;2023-05-09T13:03:51;1.30;;;1.20;;
3261;SDS011;1643;47.746;9.000;2023-05-09T13:06:23;1.80;;;1.70;;
3261;SDS011;1643;47.746;9.000;2023-05-09T13:08:56;2.50;;;1.40;;
3261;SDS011;1643;47.746;9.000;2023-05-09T13:11:25;1.60;;;1.50;;
3261;SDS011;1643;47.746;9.000;2023-05-09T13:13:51;1.93;;;1.50;;
3261;SDS011;1643;47.746;9.000;2023-05-09T13:16:18;1.60;;;1.50;;
3261;SDS011;1643;47.746;9.000;2023-05-09T13:18:44;1.40;;;1.30;;
3261;SDS011;1643;47.746;9.000;2023-05-09T13:21:10;1.57;;;1.47;;
3261;SDS011;1643;47.746;9.000;2023-05-09T13:23:35;1.43;;;1.33;;
3261;SDS011;1643;47.746;9.000;2023-05-09T13:26:01;1.90;;;1.40;;
3261;SDS011;1643;47.746;9.000;2023-05-09T13:28:27;1.30;;;1.20;;
3261;SDS011;1643;47.746;9.000;2023-05-09T13:30:53;1.50;;;1.40;;
3261;SDS011;1643;47.746;9.000;2023-05-09T13:33:18;1.40;;;1.30;;
3261;SDS011;1643;47.746;9.000;2023-05-09T13:35:44;1.60;;;1.50;;
3261;SDS011;1643;47.746;9.000;2023-05-09T13:38:10;2.53;;;1.37;;
3261;SDS011;1643;47.746;9.000;2023-05-09T13:40:35;1.50;;;1.40;;
3261;SDS011;1643;47.746;9.000;2023-05-09T13:43:01;1.57;;;1.47;;
3261;SDS011;1643;47.746;9.000;2023-05-09T13:45:27;1.70;;;1.60;;
3261;SDS011;1643;47.746;9.000;2023-05-09T13:47:53;1.77;;;1.67;;
3261;SDS011;1643;47.746;9.000;2023-05-09T13:50:18;1.40;;;1.30;;
3261;SDS011;1643;47.746;9.000;2023-05-09T13:52:44;1.60;;;1.50;;
3261;SDS011;1643;47.746;9.000;2023-05-09T13:55:10;1.47;;;1.37;;
3261;SDS011;1643;47.746;9.000;2023-05-09T13:57:35;1.53;;;1.43;;
3261;SDS011;1643;47.746;9.000;2023-05-09T14:00:01;1.40;;;1.30;;
3261;SDS011;1643;47.746;9.000;2023-05-09T14:02:28;1.50;;;1.00;;
3261;SDS011;1643;47.746;9.000;2023-05-09T14:04:53;1.33;;;1.23;;
3261;SDS011;1643;47.746;9.000;2023-05-09T14:07:19;1.30;;;1.20;;
3261;SDS011;1643;47.746;9.000;2023-05-09T14:09:45;1.27;;;1.17;;
3261;SDS011;1643;47.746;9.000;2023-05-09T14:12:11;1.13;;;1.13;;
3261;SDS011;1643;47.746;9.000;2023-05-09T14:14:37;2.07;;;1.50;;
3261;SDS011;1643;47.746;9.000;2023-05-09T14:17:03;1.30;;;1.20;;
3261;SDS011;1643;47.746;9.000;2023-05-09T14:19:28;1.40;;;1.30;;
3261;SDS011;1643;47.746;9.000;2023-05-09T14:21:54;1.33;;;1.23;;
3261;SDS011;1643;47.746;9.000;2023-05-09T14:24:19;1.20;;;1.20;;
3261;SDS011;1643;47.746;9.000;2023-05-09T14:26:45;1.60;;;1.50;;
3261;SDS011;1643;47.746;9.000;2023-05-09T14:29:11;1.30;;;1.20;;
3261;SDS011;1643;47.746;9.000;2023-05-09T14:31:37;1.40;;;1.30;;
3261;SDS011;1643;47.746;9.000;2023-05-09T14:34:02;1.47;;;1.37;;
3261;SDS011;1643;47.746;9.000;2023-05-09T14:36:29;2.33;;;1.20;;
3261;SDS011;1643;47.746;9.000;2023-05-09T14:38:56;1.50;;;1.40;;
3261;SDS011;1643;47.746;9.000;2023-05-09T14:41:22;2.37;;;2.23;;
3261;SDS011;1643;47.746;9.000;2023-05-09T14:43:47;2.90;;;1.70;;
3261;SDS011;1643;47.746;9.000;2023-05-09T14:46:13;1.60;;;1.50;;
3261;SDS011;1643;47.746;9.000;2023-05-09T14:48:39;1.50;;;1.27;;
3261;SDS011;1643;47.746;9.000;2023-05-09T14:51:04;1.40;;;1.30;;
3261;SDS011;1643;47.746;9.000;2023-05-09T14:53:30;1.47;;;1.37;;
3261;SDS011;1643;47.746;9.000;2023-05-09T14:55:56;1.43;;;1.33;;
3261;SDS011;1643;47.746;9.000;2023-05-09T14:58:21;1.40;;;1.40;;
3261;SDS011;1643;47.746;9.000;2023-05-09T15:00:47;2.63;;;1.60;;
3261;SDS011;1643;47.746;9.000;2023-05-09T15:03:13;5.23;;;1.73;;
3261;SDS011;1643;47.746;9.000;2023-05-09T15:05:39;1.67;;;1.57;;
3261;SDS011;1643;47.746;9.000;2023-05-09T15:08:05;1.53;;;1.40;;
3261;SDS011;1643;47.746;9.000;2023-05-09T15:10:31;1.87;;;1.10;;
3261;SDS011;1643;47.746;9.000;2023-05-09T15:12:57;1.70;;;1.60;;
3261;SDS011;1643;47.746;9.000;2023-05-09T15:15:23;1.67;;;1.40;;
3261;SDS011;1643;47.746;9.000;2023-05-09T15:17:49;1.73;;;1.60;;
3261;SDS011;1643;47.746;9.000;2023-05-09T15:20:16;1.53;;;1.20;;
3261;SDS011;1643;47.746;9.000;2023-05-09T15:22:42;1.60;;;1.50;;
3261;SDS011;1643;47.746;9.000;2023-05-09T15:25:08;1.57;;;1.47;;
3261;SDS011;1643;47.746;9.000;2023-05-09T15:27:34;1.50;;;1.40;;
3261;SDS011;1643;47.746;9.000;2023-05-09T15:30:01;1.70;;;1.60;;
3261;SDS011;1643;47.746;9.000;2023-05-09T15:32:27;1.60;;;1.50;;
3261;SDS011;1643;47.746;9.000;2023-05-09T15:34:53;1.57;;;1.47;;
3261;SDS011;1643;47.746;9.000;2023-05-09T15:37:18;2.10;;;1.63;;
3261;SDS011;1643;47.746;9.000;2023-05-09T15:39:44;2.50;;;1.23;;